Anchor Bay, California
Current Conditions -  °F | °C
As of 1:56 PM on Friday 31 Oct 2014 (Local Time) from KUKI Reporting Station
Few Clouds Few Clouds  
Wind Chill: 62°   Ceiling: Unl
Heat Index: 62°   Visibility: 10mi
Dew Point: 49°   Wind: 0mph
Humidity: 62%   Direction: NA
Pressure: 29.8"   Gusts: NA
Location:  38.8361°N, 123.43°W
Report Text: KUKI 312056Z AUTO 00000KT 10SM FEW055 17/09 A2980 RMK AO2 SLP087 T01670094 58021
Loading
Personal Weather Stations






























Interactive Weather Map
Tropical Storm Tracking
New forecast layout! Learn more

10-Day Weather Forecast

Advertisements
Track Severe Weather on mobile